createdAt,value
2022-09-05T00:01:18.802Z,101170.17
2022-09-05T00:07:09.149Z,101170.30
2022-09-05T00:12:37.257Z,101169.84
2022-09-05T00:24:17.332Z,101172.77
2022-09-05T00:25:14.392Z,101182.16
2022-09-05T00:31:08.562Z,101181.77
2022-09-05T00:37:00.441Z,101180.38
2022-09-05T00:42:25.020Z,101180.55
2022-09-05T00:48:06.587Z,101177.25
2022-09-05T00:53:45.115Z,101178.95
2022-09-05T00:59:58.892Z,101175.76
2022-09-05T01:05:55.860Z,101173.11
2022-09-05T01:11:36.748Z,101172.19
2022-09-05T01:17:28.777Z,101170.06
2022-09-05T01:22:59.155Z,101178.09
2022-09-05T01:29:15.632Z,101179.92
2022-09-05T01:34:31.223Z,101183.02
2022-09-05T01:40:14.903Z,101188.45
2022-09-05T01:46:12.276Z,101188.98
2022-09-05T01:52:02.309Z,101192.85
2022-09-05T01:57:37.243Z,101200.19
2022-09-05T02:03:31.796Z,101192.30
2022-09-05T02:09:41.033Z,101195.30
2022-09-05T02:15:09.978Z,101197.21
2022-09-05T02:20:57.740Z,101197.59
2022-09-05T02:26:25.091Z,101199.69
2022-09-05T02:31:49.086Z,101195.30
2022-09-05T02:39:19.969Z,101203.30
2022-09-05T02:45:21.698Z,101206.21
2022-09-05T02:52:21.283Z,101204.27
2022-09-05T02:57:34.885Z,101203.19
2022-09-05T03:01:54.140Z,101200.27
2022-09-05T03:07:48.891Z,101194.20
2022-09-05T03:13:25.674Z,101195.34
2022-09-05T03:19:01.473Z,101200.90
2022-09-05T03:24:34.820Z,101201.52
2022-09-05T03:30:16.962Z,101205.39
2022-09-05T03:36:05.208Z,101212.84
2022-09-05T03:41:50.180Z,101215.11
2022-09-05T03:47:11.812Z,101221.27
2022-09-05T03:57:16.679Z,101225.27
2022-09-05T03:59:00.361Z,101223.52
2022-09-05T04:08:18.450Z,101230.25
2022-09-05T04:10:34.619Z,101231.36
2022-09-05T04:16:03.964Z,101236.88
2022-09-05T04:21:30.336Z,101249.40
2022-09-05T04:27:00.988Z,101253.23
2022-09-05T04:32:45.992Z,101254.65
2022-09-05T04:38:13.014Z,101255.93
2022-09-05T04:43:52.412Z,101256.39
2022-09-05T04:49:30.968Z,101264.46
2022-09-05T04:54:58.010Z,101269.14
2022-09-05T05:06:02.648Z,101271.49
2022-09-05T05:06:45.412Z,101271.86
2022-09-05T05:17:58.392Z,101274.29
2022-09-05T05:18:39.729Z,101279.02
2022-09-05T05:23:46.742Z,101281.27
2022-09-05T05:29:26.148Z,101284.97
2022-09-05T05:34:56.903Z,101282.83
2022-09-05T05:40:17.971Z,101286.09
2022-09-05T05:45:39.127Z,101287.58
2022-09-05T05:52:01.825Z,101289.36
2022-09-05T05:58:11.719Z,101301.55
2022-09-05T06:03:44.640Z,101307.36
2022-09-05T06:14:48.231Z,101310.52
2022-09-05T06:15:35.460Z,101310.46
2022-09-05T06:22:08.747Z,101309.77
2022-09-05T06:27:43.874Z,101310.33
2022-09-05T06:33:39.180Z,101312.81
2022-09-05T06:39:09.767Z,101314.50
2022-09-05T06:44:50.905Z,101319.25
2022-09-05T06:50:24.434Z,101319.98
2022-09-05T06:55:59.515Z,101319.54
2022-09-05T07:01:59.910Z,101324.41
2022-09-05T07:07:18.466Z,101329.42
2022-09-05T07:12:45.463Z,101331.12
2022-09-05T07:18:40.864Z,101332.87
2022-09-05T07:24:09.831Z,101329.40
2022-09-05T07:29:36.921Z,101336.98
2022-09-05T07:35:02.122Z,101345.15
2022-09-05T07:40:25.865Z,101347.02
2022-09-05T07:46:11.909Z,101350.98
2022-09-05T07:56:54.789Z,101350.95
2022-09-05T07:57:51.396Z,101354.34
2022-09-05T08:03:14.182Z,101346.91
2022-09-05T08:09:21.922Z,101347.33
2022-09-05T08:14:50.440Z,101347.87
2022-09-05T08:20:14.443Z,101345.96
2022-09-05T08:25:57.330Z,101343.41
2022-09-05T08:31:46.236Z,101349.12
2022-09-05T08:37:10.913Z,101343.28
2022-09-05T08:44:13.567Z,101340.32
2022-09-05T08:48:40.497Z,101336.05
2022-09-05T08:54:05.468Z,101331.83
2022-09-05T09:00:19.897Z,101317.90
2022-09-05T09:06:13.947Z,101309.20
2022-09-05T09:11:41.388Z,101300.64
2022-09-05T09:17:24.004Z,101295.50
2022-09-05T09:22:59.928Z,101287.73
2022-09-05T09:28:50.187Z,101287.46
2022-09-05T09:34:25.773Z,101292.04
2022-09-05T09:40:09.813Z,101293.52
2022-09-05T09:45:43.192Z,101285.79
2022-09-05T09:51:36.665Z,101284.89
2022-09-05T09:57:49.005Z,101281.90
2022-09-05T10:09:50.584Z,101286.93
2022-09-05T10:11:00.720Z,101283.64
2022-09-05T10:15:44.568Z,101281.68
2022-09-05T10:21:26.721Z,101276.79
2022-09-05T10:27:09.445Z,101271.26
2022-09-05T10:35:07.572Z,101275.55
2022-09-05T10:38:34.435Z,101265.81
2022-09-05T10:44:03.471Z,101262.88
2022-09-05T10:49:30.318Z,101261.88
2022-09-05T10:55:14.665Z,101251.91
2022-09-05T11:02:27.526Z,101250.77
2022-09-05T11:06:53.424Z,101243.21
2022-09-05T11:12:20.621Z,101232.24
2022-09-05T11:18:15.953Z,101236.80
2022-09-05T11:23:56.945Z,101236.34
2022-09-05T11:29:23.341Z,101231.80
2022-09-05T11:39:59.004Z,101231.91
2022-09-05T11:41:28.981Z,101219.77
2022-09-05T11:46:52.129Z,101216.89
2022-09-05T11:52:29.967Z,101212.67
2022-09-05T11:58:44.531Z,101219.23
2022-09-05T12:04:01.094Z,101218.43
2022-09-05T12:09:32.272Z,101211.29
2022-09-05T12:15:04.353Z,101214.23
2022-09-05T12:20:57.615Z,101210.95
2022-09-05T12:27:43.669Z,101214.35
2022-09-05T12:33:58.271Z,101208.93
2022-09-05T12:40:15.765Z,101202.27
2022-09-05T12:44:40.354Z,101194.55
2022-09-05T12:49:47.410Z,101194.21
2022-09-05T12:55:24.443Z,101186.20
2022-09-05T13:03:07.649Z,101183.08
2022-09-05T13:06:42.575Z,101183.18
2022-09-05T13:14:57.071Z,101183.81
2022-09-05T13:18:32.525Z,101172.88
2022-09-05T13:24:32.539Z,101170.16
2022-09-05T13:32:36.122Z,101171.58
2022-09-05T13:38:07.747Z,101164.55
2022-09-05T13:42:06.346Z,101155.52
2022-09-05T13:47:50.000Z,101154.48
2022-09-05T13:53:27.864Z,101149.04
2022-09-05T13:59:02.328Z,101146.95
2022-09-05T14:10:40.695Z,101135.55
2022-09-05T14:16:13.515Z,101131.98
2022-09-05T14:21:41.231Z,101125.30
2022-09-05T14:27:32.458Z,101124.31
2022-09-05T14:37:54.127Z,101124.89
2022-09-05T14:40:32.410Z,101115.82
2022-09-05T14:46:14.008Z,101111.10
2022-09-05T14:51:40.552Z,101103.75
2022-09-05T15:00:51.024Z,101102.46
2022-09-05T15:02:54.499Z,101094.82
2022-09-05T15:08:20.315Z,101104.83
2022-09-05T15:13:32.450Z,101101.33
2022-09-05T15:18:41.284Z,101101.70
2022-09-05T15:24:18.163Z,101101.41
2022-09-05T15:29:30.713Z,101095.67
2022-09-05T15:34:34.302Z,101090.41
2022-09-05T15:40:24.008Z,101093.75
2022-09-05T15:45:32.133Z,101091.13
2022-09-05T15:50:44.457Z,101089.58
2022-09-05T15:56:19.169Z,101089.16
2022-09-05T16:02:03.039Z,101083.08
2022-09-05T16:10:45.239Z,101079.96
2022-09-05T16:12:44.563Z,101079.46
2022-09-05T16:23:18.356Z,101078.09
2022-09-05T16:23:57.015Z,101080.73
2022-09-05T16:29:27.174Z,101077.91
2022-09-05T16:34:52.962Z,101081.82
2022-09-05T16:40:38.170Z,101079.84
2022-09-05T16:46:14.874Z,101080.88
2022-09-05T16:51:35.632Z,101082.74
2022-09-05T16:57:00.729Z,101077.85
2022-09-05T17:02:27.619Z,101071.82
2022-09-05T17:08:13.081Z,101072.05
2022-09-05T17:13:34.242Z,101070.10
2022-09-05T17:18:42.350Z,101070.96
2022-09-05T17:29:23.618Z,101071.67
2022-09-05T17:36:08.699Z,101079.38
2022-09-05T17:41:57.685Z,101079.34
2022-09-05T17:47:35.950Z,101081.41
2022-09-05T17:53:24.922Z,101082.43
2022-09-05T17:58:49.494Z,101080.84
2022-09-05T18:04:15.784Z,101090.32
2022-09-05T18:10:14.557Z,101094.02
2022-09-05T18:15:28.510Z,101098.33
2022-09-05T18:26:40.442Z,101102.74
2022-09-05T18:31:51.613Z,101108.41
2022-09-05T18:37:01.086Z,101103.59
2022-09-05T18:42:34.727Z,101101.39
2022-09-05T18:47:59.205Z,101099.16
2022-09-05T18:53:28.607Z,101102.81
2022-09-05T18:58:35.814Z,101104.45
2022-09-05T19:03:48.525Z,101102.25
2022-09-05T19:09:14.199Z,101098.48
2022-09-05T19:14:45.400Z,101099.42
2022-09-05T19:20:49.640Z,101102.42
2022-09-05T19:26:12.519Z,101105.62
2022-09-05T19:36:53.409Z,101102.13
2022-09-05T19:37:30.511Z,101099.65
2022-09-05T19:47:28.368Z,101097.30
2022-09-05T19:48:07.509Z,101094.30
2022-09-05T19:53:22.580Z,101095.92
2022-09-05T19:58:31.303Z,101097.64
2022-09-05T20:03:41.038Z,101089.31
2022-09-05T20:08:49.365Z,101091.80
2022-09-05T20:13:54.388Z,101093.95
2022-09-05T20:18:57.748Z,101094.83
2022-09-05T20:24:01.097Z,101096.39
2022-09-05T20:29:12.210Z,101099.30
2022-09-05T20:37:18.522Z,101100.74
2022-09-05T20:43:35.703Z,101099.52
2022-09-05T20:45:44.743Z,101100.30
2022-09-05T20:54:19.758Z,101098.02
2022-09-05T20:56:23.366Z,101091.94
2022-09-05T21:01:28.446Z,101089.75
2022-09-05T21:06:36.668Z,101091.52
2022-09-05T21:11:50.753Z,101086.25
2022-09-05T21:16:58.619Z,101082.96
2022-09-05T21:22:25.247Z,101082.05
2022-09-05T21:27:38.221Z,101082.73
2022-09-05T21:32:41.979Z,101087.97
2022-09-05T21:37:50.285Z,101088.27
2022-09-05T21:46:02.586Z,101097.02
2022-09-05T21:48:34.981Z,101095.93
2022-09-05T21:59:15.053Z,101095.20
2022-09-05T21:59:36.534Z,101094.67
2022-09-05T22:04:43.021Z,101088.96
2022-09-05T22:09:56.580Z,101083.86
2022-09-05T22:15:27.565Z,101071.27
2022-09-05T22:20:27.917Z,101070.20
2022-09-05T22:25:34.632Z,101078.72
2022-09-05T22:30:39.914Z,101077.70
2022-09-05T22:35:45.027Z,101080.73
2022-09-05T22:40:49.498Z,101079.13
2022-09-05T22:45:57.533Z,101080.60
2022-09-05T22:51:00.989Z,101075.34
2022-09-05T22:56:09.145Z,101077.33
2022-09-05T23:01:13.430Z,101074.06
2022-09-05T23:06:18.357Z,101072.40
2022-09-05T23:11:44.546Z,101067.27
2022-09-05T23:16:51.285Z,101068.92
2022-09-05T23:22:02.473Z,101063.73
2022-09-05T23:27:06.161Z,101055.21
2022-09-05T23:32:10.317Z,101050.02
2022-09-05T23:37:16.128Z,101042.92
2022-09-05T23:42:21.777Z,101045.58
2022-09-05T23:47:25.521Z,101049.44
2022-09-05T23:52:32.009Z,101043.31
2022-09-05T23:57:36.644Z,101043.67
